Nearby METAR Reports

 

EGMC - Southend-On-Sea, United Kingdom
Distance from station: NE 10km
Updated: 04/06/2020 13:50
Few Clouds
Few Clouds
 Wind from NNW
Wind: NNW 12 mph , 19 km/h
Temperature: 16°C
Dew Point: 4°C
Humidity: 45%
Barometer: 1002 hPa
Clouds: Few Clouds
Visibility: 6 miles , 10 km
Cloud details: Few Clouds 1219 m
2020/06/04 12:50 EGMC 041250Z 34010KT 280V050 9999 FEW040 16/04 Q1002
EGLC - London City Airp, United Kingdom
Distance from station: W 37km
Updated: 04/06/2020 13:50
Mostly cloudy
Mostly cloudy
 Wind from NW
Wind: NW 12 mph , 19 km/h
Temperature: 16°C
Dew Point: 3°C
Humidity: 42%
Barometer: 1002 hPa
Clouds: Mostly cloudy
Visibility: 6 miles , 10 km
Cloud details: Mostly cloudy 1463 m
2020/06/04 12:50 EGLC 041250Z AUTO 31010KT 280V040 9999 BKN048 16/03 Q1002
EGKB - Biggin Hill, United Kingdom
Distance from station: WSW 45km
Updated: 04/06/2020 13:50
Partly cloudy
Partly cloudy
 Wind from NNW
Wind: NNW 12 mph , 19 km/h
Temperature: 14°C
Dew Point: 3°C
Humidity: 48%
Barometer: 1002 hPa
Clouds: Partly cloudy
Visibility: 6 miles , 10 km
Cloud details: Partly cloudy 1372 m
2020/06/04 12:50 EGKB 041250Z 34010KT 260V020 9999 SCT045 14/03 Q1002
 
EGSS - Stansted Airport, United Kingdom
Distance from station: NNW 48km
Updated: 04/06/2020 13:50
Overcast
Overcast
 Wind from NW
Wind: NW 10 mph , 17 km/h
Temperature: 14°C
Dew Point: 5°C
Humidity: 55%
Barometer: 1002 hPa
Clouds: Overcast
Visibility: 6 miles , 10 km
Cloud details: Mostly cloudy 1189 m
Overcast 1463 m
2020/06/04 12:50 EGSS 041250Z AUTO 32009KT 290V360 9999 BKN039 OVC048 14/05 Q1002
EGKK - London/Gatwick A, United Kingdom
Distance from station: SW 67km
Updated: 04/06/2020 13:50
Few Clouds
Few Clouds
 Wind from N
Wind: N 10 mph , 17 km/h
Temperature: 16°C
Dew Point: 3°C
Humidity: 42%
Barometer: 1002 hPa
Clouds: Few Clouds
Visibility: 6 miles , 10 km
Cloud details: Few Clouds 1402 m
2020/06/04 12:50 EGKK 041250Z 35009KT 320V030 9999 FEW046 16/03 Q1002
EGMD - Lydd Airport, United Kingdom
Distance from station: SSE 67km
Updated: 04/06/2020 13:50
Few Clouds
Few Clouds
 Wind from NW
Wind: NW 13 mph , 20 km/h
Temperature: 15°C
Dew Point: 9°C
Humidity: 68%
Barometer: 1002 hPa
Clouds: Few Clouds
Visibility: 6 miles , 10 km
Cloud details: Few Clouds 1036 m
2020/06/04 12:50 EGMD 041250Z AUTO 32011KT 9999 FEW034/// 15/09 Q1002
 
EGWU - Northolt Raf, United Kingdom
Distance from station: W 69km
Updated: 04/06/2020 13:50
Mostly cloudy
Mostly cloudy
 Wind from NNW
Wind: NNW 14 mph , 22 km/h
Temperature: 15°C
Dew Point: 3°C
Humidity: 45%
Barometer: 1003 hPa
Clouds: Mostly cloudy
Visibility: 6 miles , 10 km
Cloud details: Mostly cloudy 1372 m
Mostly cloudy 7620 m
2020/06/04 12:50 EGWU 041250Z 33012KT 9999 BKN045 BKN250 15/03 Q1003 NOSIG RMK BLU BLU
EGLL - London/Heathrow, United Kingdom
Distance from station: W 72km
Updated: 04/06/2020 13:50
Mostly cloudy
Mostly cloudy
 Wind from WNW
Wind: WNW 10 mph , 17 km/h
Temperature: 16°C
Dew Point: 4°C
Humidity: 45%
Barometer: 1003 hPa
Clouds: Mostly cloudy
Visibility: 6 miles , 10 km
Cloud details: Mostly cloudy 1433 m
2020/06/04 12:50 EGLL 041250Z AUTO 30009KT 260V340 9999 BKN047 16/04 Q1003 NOSIG
EGUW - Wattisham Raf, United Kingdom
Distance from station: NNE 72km
Updated: 04/06/2020 13:50
Mostly cloudy
Mostly cloudy
 Wind from NNW
Wind: NNW 14 mph , 22 km/h
Temperature: 13°C
Dew Point: 4°C
Humidity: 55%
Barometer: 1001 hPa
Clouds: Mostly cloudy
Visibility: 6 miles , 10 km
Cloud details: Partly cloudy 1158 m
Mostly cloudy 1372 m
2020/06/04 12:50 EGUW 041250Z 33012KT 9999 SCT038 BKN045 13/04 Q1001 NOSIG RMK BLU BLU
 
EGGW - Luton Airport, United Kingdom
Distance from station: WNW 76km
Updated: 04/06/2020 13:50
Mostly cloudy
Mostly cloudy
 Wind from NW
Wind: NW 15 mph , 24 km/h
Temperature: 13°C
Dew Point: 4°C
Humidity: 55%
Barometer: 1003 hPa
Clouds: Mostly cloudy
Visibility: 6 miles , 10 km
Cloud details: Partly cloudy 1128 m
Mostly cloudy 1372 m
2020/06/04 12:50 EGGW 041250Z AUTO 31013KT 9999 SCT037 BKN045 13/04 Q1003
EGSC - Cambridge, United Kingdom
Distance from station: NNW 81km
Updated: 04/06/2020 13:50
Partly cloudy
Partly cloudy
 Wind from NW
Wind: NW 13 mph , 20 km/h
Temperature: 14°C
Dew Point: 3°C
Humidity: 48%
Barometer: 1002 hPa
Clouds: Partly cloudy
Visibility: 6 miles , 10 km
Cloud details: Partly cloudy 1280 m
2020/06/04 12:50 EGSC 041250Z 32011KT 300V360 9999 SCT042 14/03 Q1002